createdAt,value
2019-02-21T00:07:30.662Z,83.30
2019-02-21T00:17:35.337Z,83.50
2019-02-21T00:27:39.506Z,83.70
2019-02-21T00:37:43.570Z,83.60
2019-02-21T00:47:47.619Z,83.60
2019-02-21T00:57:51.702Z,83.70
2019-02-21T01:07:56.094Z,83.70
2019-02-21T01:18:00.473Z,83.70
2019-02-21T01:28:04.321Z,83.60
2019-02-21T01:38:08.061Z,83.50
2019-02-21T01:48:12.347Z,83.50
2019-02-21T01:58:16.761Z,83.40
2019-02-21T02:08:20.842Z,83.00
2019-02-21T02:18:24.929Z,82.80
2019-02-21T02:28:28.977Z,82.80
2019-02-21T02:38:32.743Z,82.80
2019-02-21T02:48:37.207Z,82.80
2019-02-21T02:58:41.267Z,82.80
2019-02-21T03:08:45.422Z,82.60
2019-02-21T03:18:49.446Z,82.60
2019-02-21T03:28:53.918Z,82.50
2019-02-21T03:38:57.967Z,82.50
2019-02-21T03:49:01.800Z,83.00
2019-02-21T03:59:06.042Z,83.30
2019-02-21T04:09:10.119Z,83.60
2019-02-21T04:19:14.359Z,83.90
2019-02-21T04:29:18.753Z,85.00
2019-02-21T04:39:22.850Z,84.20
2019-02-21T04:49:26.910Z,84.60
2019-02-21T04:59:30.987Z,84.60
2019-02-21T05:09:35.450Z,84.80
2019-02-21T05:19:39.210Z,85.20
2019-02-21T05:29:43.446Z,85.30
2019-02-21T05:40:06.290Z,85.60
2019-02-21T05:50:29.847Z,84.10
2019-02-21T06:00:45.602Z,85.00
2019-02-21T06:11:27.478Z,85.20
2019-02-21T06:21:39.316Z,85.40
2019-02-21T06:31:43.630Z,85.30
2019-02-21T06:41:58.777Z,85.60
2019-02-21T06:51:53.522Z,85.70
2019-02-21T07:01:57.587Z,85.80
2019-02-21T07:12:02.038Z,85.80
2019-02-21T07:22:06.363Z,85.80
2019-02-21T07:32:10.334Z,84.10
2019-02-21T07:42:14.089Z,84.60
2019-02-21T07:52:18.466Z,84.20
2019-02-21T08:02:22.609Z,84.30
2019-02-21T08:12:26.794Z,85.00
2019-02-21T08:22:31.274Z,84.50
2019-02-21T08:32:54.147Z,84.70
2019-02-21T08:42:58.166Z,85.00
2019-02-21T08:53:02.201Z,85.40
2019-02-21T09:03:05.954Z,85.10
2019-02-21T09:13:10.290Z,85.00
2019-02-21T09:23:15.904Z,84.90
2019-02-21T09:33:21.484Z,84.60
2019-02-21T09:43:25.784Z,84.10
2019-02-21T09:53:29.878Z,84.50
2019-02-21T10:03:33.915Z,83.60
2019-02-21T10:13:37.673Z,83.70
2019-02-21T10:23:42.293Z,81.60
2019-02-21T10:33:47.480Z,82.10
2019-02-21T10:43:51.787Z,82.80
2019-02-21T10:53:55.897Z,80.40
2019-02-21T11:03:59.689Z,82.10
2019-02-21T11:14:03.535Z,82.30
2019-02-21T11:24:07.630Z,82.50
2019-02-21T11:34:11.794Z,82.40
2019-02-21T11:44:16.231Z,82.00
2019-02-21T11:54:27.063Z,82.30
2019-02-21T12:04:26.570Z,82.80
2019-02-21T12:14:30.626Z,83.00
2019-02-21T12:24:34.393Z,83.50
2019-02-21T12:34:38.174Z,83.60
2019-02-21T12:44:42.221Z,83.50
2019-02-21T12:54:47.713Z,83.50
2019-02-21T13:04:52.518Z,83.70
2019-02-21T13:14:56.282Z,84.20
2019-02-21T13:25:00.153Z,85.60
2019-02-21T13:35:04.507Z,86.10
2019-02-21T13:45:09.458Z,87.00
2019-02-21T13:55:14.148Z,87.40
2019-02-21T14:05:18.595Z,87.80
2019-02-21T14:15:23.874Z,88.30
2019-02-21T14:25:28.520Z,88.20
2019-02-21T14:35:33.880Z,88.60
2019-02-21T14:45:38.024Z,89.50
2019-02-21T14:55:42.140Z,90.20
2019-02-21T15:05:46.351Z,90.50
2019-02-21T15:15:51.513Z,90.70
2019-02-21T15:25:55.416Z,91.00
2019-02-21T15:35:59.462Z,91.30
2019-02-21T15:46:03.873Z,91.60
2019-02-21T15:56:08.784Z,92.00
2019-02-21T16:06:13.185Z,92.20
2019-02-21T16:16:18.407Z,92.60
2019-02-21T16:26:22.528Z,91.40
2019-02-21T16:36:26.668Z,92.30
2019-02-21T16:46:31.718Z,92.60
2019-02-21T16:56:35.813Z,92.80
2019-02-21T17:06:39.941Z,92.90
2019-02-21T17:16:43.712Z,92.90
2019-02-21T17:26:47.830Z,93.00
2019-02-21T17:36:52.040Z,93.00
2019-02-21T17:46:56.858Z,92.40
2019-02-21T17:57:00.991Z,93.00
2019-02-21T18:07:04.862Z,93.30
2019-02-21T18:17:08.959Z,93.40
2019-02-21T18:27:13.719Z,93.50
2019-02-21T18:37:18.423Z,93.50
2019-02-21T18:47:22.462Z,93.60
2019-02-21T18:57:31.344Z,93.70
2019-02-21T19:07:35.609Z,93.70
2019-02-21T19:17:39.832Z,93.80
2019-02-21T19:27:44.362Z,93.90
2019-02-21T19:37:48.806Z,93.90
2019-02-21T19:47:52.571Z,93.90
2019-02-21T19:57:56.723Z,93.90
2019-02-21T20:08:08.570Z,93.80
2019-02-21T20:18:07.631Z,93.80
2019-02-21T20:28:12.014Z,93.90
2019-02-21T20:38:31.574Z,94.00
2019-02-21T20:48:27.106Z,94.10
2019-02-21T20:58:30.879Z,94.20
2019-02-21T21:08:49.767Z,94.20
2019-02-21T21:18:54.283Z,94.20
2019-02-21T21:28:58.444Z,94.10
2019-02-21T21:39:02.839Z,94.20
2019-02-21T21:49:06.985Z,94.10
2019-02-21T21:59:11.263Z,94.10
2019-02-21T22:09:15.385Z,94.10
2019-02-21T22:19:19.177Z,94.10
2019-02-21T22:29:23.066Z,94.20
2019-02-21T22:39:27.623Z,94.20
2019-02-21T22:49:31.404Z,94.20
2019-02-21T22:59:35.474Z,94.30
2019-02-21T23:09:39.957Z,94.20
2019-02-21T23:19:43.795Z,94.40
2019-02-21T23:29:47.882Z,94.40
2019-02-21T23:39:51.919Z,94.30
2019-02-21T23:49:56.205Z,94.30
2019-02-21T23:59:59.971Z,94.20
